.
WxDataArchive / Data Records for 2007-06-21
2007-06-20 June 2007 2007-06-22

Data Records for Thursday, 21 June 2007

Time	Temp	Chill	HIndex	Humid	Dewpt	 Wind 	HiWind	WindDir	Rain 	Barom 
-----	----	-----	------	-----	-----	------	------	-------	-----	----- 
00:00	60.5	60.5	60.5	68	49.9	0	0	---	0.00	30.052 
00:05	60.5	60.5	60.5	67	49.5	0	0	---	0.00	30.052 
00:10	60.5	60.5	60.5	68	49.9	0	0	---	0.00	30.052 
00:15	60.7	60.7	60.7	67	49.7	0	0	---	0.00	30.049 
00:20	60.9	60.9	60.9	65	49.1	0	0	---	0.00	30.051 
00:25	61.0	61.0	61.0	66	49.6	0	0	---	0.00	30.047 
00:30	61.2	61.2	61.2	64	48.9	0	0	---	0.00	30.051 
00:35	61.3	61.3	61.3	66	49.8	0	0	---	0.00	30.056 
00:40	61.3	61.3	61.3	65	49.4	0	0	---	0.00	30.055 
00:45	61.3	61.3	61.3	65	49.4	0	0	---	0.00	30.055 
00:50	61.5	61.5	61.5	63	48.8	0	0	---	0.00	30.054 
00:55	61.5	61.5	61.5	62	48.4	0	0	---	0.00	30.052 
01:00	61.6	61.6	61.6	63	48.9	0	0	---	0.00	30.050 
01:05	61.6	61.6	61.6	63	48.9	0	0	---	0.00	30.052 
01:10	61.6	61.6	61.6	63	48.9	0	0	---	0.00	30.052 
01:15	61.6	61.6	61.6	63	48.9	0	0	---	0.00	30.048 
01:20	61.6	61.6	61.6	62	48.4	0	0	---	0.00	30.044 
01:25	61.6	61.6	61.6	62	48.4	0	0	---	0.00	30.040 
01:30	61.6	61.6	61.6	62	48.4	0	0	---	0.00	30.037 
01:35	61.8	61.8	61.8	62	48.6	0	0	---	0.00	30.039 
01:40	62.0	62.0	62.0	60	48.0	0	0	---	0.00	30.042 
01:45	62.0	62.0	62.0	61	48.4	0	0	---	0.00	30.040 
01:50	62.0	62.0	62.0	61	48.4	0	0	---	0.00	30.038 
01:55	62.0	62.0	62.0	60	48.0	0	0	---	0.00	30.028 
02:00	62.1	62.1	62.1	60	48.0	0	0	---	0.00	30.032 
02:05	62.4	62.4	62.4	59	47.9	0	0	---	0.00	30.033 
02:10	62.6	62.6	62.6	59	48.1	0	0	---	0.00	30.028 
02:15	62.6	62.6	62.6	59	48.1	0	0	---	0.00	30.026 
02:20	62.6	62.6	62.6	59	48.1	0	0	---	0.00	30.024 
02:25	62.4	62.4	62.4	60	48.3	0	0	---	0.00	30.028 
02:30	62.4	62.4	62.4	59	47.9	0	0	---	0.00	30.027 
02:35	62.6	62.6	62.6	59	48.1	0	0	---	0.00	30.025 
02:40	62.6	62.6	62.6	58	47.6	0	0	---	0.00	30.024 
02:45	62.7	62.7	62.7	58	47.7	0	1	292	0.00	30.026 
02:50	62.9	62.9	62.9	57	47.4	0	0	---	0.00	30.025 
02:55	62.9	62.9	62.9	58	47.9	0	0	---	0.00	30.024 
03:00	62.7	62.7	62.7	57	47.2	0	0	---	0.00	30.023 
03:05	62.7	62.7	62.7	57	47.2	0	0	---	0.00	30.022 
03:10	62.9	62.9	62.9	57	47.4	0	1	292	0.00	30.019 
03:15	63.2	63.2	63.2	55	46.8	0	2	292	0.00	30.015 
03:20	63.5	63.5	63.5	55	47.0	0	1	292	0.00	30.013 
03:25	63.9	63.9	63.9	54	46.9	0	1	292	0.00	30.016 
03:30	63.9	63.9	63.9	54	46.9	0	1	292	0.00	30.016 
03:35	64.0	64.0	64.0	54	47.0	0	2	292	0.00	30.020 
03:40	64.0	64.0	64.0	54	47.0	0	1	270	0.00	30.021 
03:45	64.2	64.2	64.2	53	46.7	0	1	270	0.00	30.022 
03:50	64.2	64.2	64.2	53	46.7	0	1	248	0.00	30.019 
03:55	64.2	64.2	64.2	54	47.2	0	1	248	0.00	30.015 
04:00	64.3	64.3	64.3	54	47.3	0	2	248	0.00	30.014 
04:05	64.5	64.5	64.5	53	47.0	0	1	248	0.00	30.015 
04:10	64.5	64.5	64.5	54	47.5	0	1	248	0.00	30.020 
04:15	64.5	64.5	64.5	54	47.5	1	2	248	0.00	30.021 
04:20	64.8	64.8	64.8	53	47.3	1	3	248	0.00	30.022 
04:25	64.8	64.8	64.8	53	47.3	1	3	248	0.00	30.023 
04:30	64.8	64.8	64.8	54	47.8	1	2	248	0.00	30.024 
04:35	64.8	64.8	64.8	54	47.8	0	2	248	0.00	30.024 
04:40	64.7	64.7	64.7	54	47.7	0	1	248	0.00	30.027 
04:45	64.7	64.7	64.7	55	48.2	0	1	248	0.00	30.029 
04:50	64.7	64.7	64.7	55	48.2	0	2	248	0.00	30.032 
04:55	64.5	64.5	64.5	56	48.4	0	1	248	0.00	30.035 
05:00	64.5	64.5	64.5	56	48.4	0	1	248	0.00	30.035 
05:05	64.5	64.5	64.5	56	48.4	0	1	248	0.00	30.035 
05:10	64.5	64.5	64.5	56	48.4	0	1	248	0.00	30.036 
05:15	64.5	64.5	64.5	57	48.9	0	1	248	0.00	30.037 
05:20	64.5	64.5	64.5	57	48.9	0	1	248	0.00	30.037 
05:25	64.5	64.5	64.5	57	48.9	0	1	248	0.00	30.038 
05:30	64.7	64.7	64.7	57	49.1	0	1	248	0.00	30.039 
05:35	64.8	64.8	64.8	58	49.7	0	1	248	0.00	30.038 
05:40	65.0	65.0	65.0	58	49.9	0	1	248	0.00	30.039 
05:45	65.3	65.3	65.3	58	50.1	0	2	248	0.00	30.039 
05:50	65.6	65.6	65.6	57	49.9	1	2	248	0.00	30.038 
05:55	65.8	65.8	65.8	58	50.6	0	2	248	0.00	30.038 
06:00	66.0	66.0	66.0	58	50.8	0	1	248	0.00	30.039 
06:05	66.0	66.0	66.0	58	50.8	0	1	248	0.00	30.041 
06:10	66.1	66.1	66.1	58	50.9	0	1	248	0.00	30.042 
06:15	66.3	66.3	66.3	59	51.5	0	1	248	0.00	30.046 
06:20	66.3	66.3	66.3	58	51.1	0	1	248	0.00	30.048 
06:25	66.4	66.4	66.4	59	51.6	0	1	248	0.00	30.044 
06:30	66.8	66.8	66.8	59	52.0	0	2	248	0.00	30.046 
06:35	67.1	67.1	67.1	59	52.3	1	2	248	0.00	30.042 
06:40	67.4	67.4	67.4	59	52.6	1	2	248	0.00	30.040 
06:45	67.9	67.9	67.9	58	52.6	1	2	248	0.00	30.037 
06:50	68.4	68.4	68.4	58	53.0	1	2	248	0.00	30.036 
06:55	68.8	68.8	68.8	57	52.9	1	3	248	0.00	30.036 
07:00	69.3	69.3	69.3	56	52.9	2	4	248	0.00	30.035 
07:05	69.9	69.9	69.9	56	53.5	1	3	248	0.00	30.036 
07:10	70.4	70.4	70.4	55	53.4	1	3	248	0.00	30.034 
07:15	70.8	70.8	70.8	55	53.8	2	3	270	0.00	30.031 
07:20	71.3	71.3	71.3	54	53.8	1	3	270	0.00	30.032 
07:25	71.6	71.6	71.6	54	54.1	2	3	270	0.00	30.030 
07:30	72.1	72.1	72.1	54	54.5	1	3	270	0.00	30.034 
07:35	72.5	72.5	72.5	52	53.9	2	3	270	0.00	30.031 
07:40	73.0	73.0	73.0	52	54.3	1	3	248	0.00	30.030 
07:45	73.2	73.2	73.2	52	54.5	2	3	248	0.00	30.028 
07:50	73.3	73.3	73.3	51	54.1	2	4	270	0.00	30.029 
07:55	73.9	73.9	73.9	52	55.1	2	3	270	0.00	30.029 
08:00	74.0	74.0	74.0	50	54.2	2	4	248	0.00	30.033 
08:05	74.2	74.2	74.2	51	54.9	1	4	270	0.00	30.036 
08:10	74.4	74.4	74.4	52	55.6	2	4	248	0.00	30.036 
08:15	74.9	74.9	74.9	53	56.6	1	3	270	0.00	30.035 
08:20	75.3	75.3	77.7	49	54.8	2	3	292	0.00	30.035 
08:25	75.1	75.1	77.7	50	55.2	2	6	315	0.00	30.036 
08:30	75.4	75.4	77.8	50	55.4	2	4	315	0.00	30.036 
08:35	75.8	75.8	78.0	50	55.8	2	4	292	0.00	30.037 
08:40	76.1	76.1	78.1	53	57.7	2	3	270	0.00	30.038 
08:45	76.5	76.5	78.3	49	55.9	2	4	315	0.00	30.031 
08:50	76.7	76.7	78.4	50	56.6	2	5	270	0.00	30.027 
08:55	77.2	77.2	78.7	49	56.5	2	5	270	0.00	30.025 
09:00	77.7	77.7	79.0	49	57.0	2	5	248	0.00	30.023 
09:05	77.9	77.9	79.1	49	57.2	2	4	292	0.00	30.024 
09:10	78.5	78.5	79.6	50	58.3	2	4	292	0.00	30.024 
09:15	78.8	78.8	79.7	48	57.4	2	4	248	0.00	30.023 
09:20	79.0	79.0	79.9	49	58.2	3	5	270	0.00	30.023 
09:25	79.0	79.0	79.8	47	57.0	2	4	270	0.00	30.022 
09:30	79.4	79.4	80.1	47	57.4	2	5	292	0.00	30.022 
09:35	79.6	79.6	80.3	48	58.2	3	6	315	0.00	30.022 
09:40	79.8	79.8	80.3	46	57.2	3	5	315	0.00	30.022 
09:45	79.9	79.9	80.4	47	57.8	2	4	270	0.00	30.021 
09:50	80.1	80.1	80.6	47	58.0	3	5	292	0.00	30.021 
09:55	80.1	80.1	80.5	46	57.4	3	6	270	0.00	30.023 
10:00	80.5	80.5	80.7	45	57.2	3	6	270	0.00	30.024 
10:05	80.7	80.7	81.1	47	58.6	2	5	270	0.00	30.024 
10:10	81.1	81.1	81.4	46	58.3	2	4	270	0.00	30.025 
10:15	81.1	81.1	81.1	44	57.1	3	5	270	0.00	30.025 
10:20	81.4	81.4	81.6	46	58.6	2	5	270	0.00	30.024 
10:25	82.0	82.0	81.8	43	57.3	3	7	270	0.00	30.022 
10:30	82.0	82.0	81.7	42	56.6	3	7	270	0.00	30.021 
10:35	82.2	82.2	82.5	47	59.9	2	4	270	0.00	30.022 
10:40	82.4	82.4	82.0	42	57.0	3	9	248	0.00	30.021 
10:45	82.0	82.0	81.8	43	57.3	3	6	270	0.00	30.021 
10:50	82.0	82.0	81.8	43	57.3	3	5	270	0.00	30.021 
10:55	82.0	82.0	81.9	44	57.9	2	5	270	0.00	30.019 
11:00	82.6	82.6	82.2	42	57.2	3	6	270	0.00	30.021 
11:05	82.6	82.6	82.2	42	57.2	3	6	270	0.00	30.020 
11:10	82.6	82.6	82.2	42	57.2	2	6	315	0.00	30.020 
11:15	82.8	82.8	82.6	43	58.0	2	5	338	0.00	30.012 
11:20	82.8	82.8	82.2	40	56.0	3	7	315	0.00	30.011 
11:25	83.2	83.2	82.8	42	57.7	3	5	292	0.00	30.009 
11:30	83.4	83.4	82.9	41	57.2	4	10	270	0.00	30.008 
11:35	83.4	83.4	82.9	41	57.2	4	7	270	0.00	30.009 
11:40	83.8	83.8	83.4	42	58.2	3	6	292	0.00	30.007 
11:45	84.0	84.0	83.1	39	56.3	2	6	315	0.00	30.007 
11:50	84.1	84.1	83.6	41	57.8	3	10	270	0.00	30.006 
11:55	84.3	84.3	83.8	41	58.0	3	5	270	0.00	30.005 
12:00	84.5	84.5	84.0	41	58.2	3	6	270	0.00	30.004 
12:05	84.7	84.7	83.7	38	56.2	4	7	270	0.00	30.005 
12:10	84.5	84.5	83.5	38	56.1	3	9	315	0.00	30.003 
12:15	84.7	84.7	83.8	39	57.0	3	6	270	0.00	30.005 
12:20	84.5	84.5	83.6	39	56.8	4	7	270	0.00	30.006 
12:25	84.3	84.3	83.4	39	56.6	2	6	315	0.00	30.004 
12:30	84.1	84.1	83.2	39	56.4	3	5	292	0.00	30.004 
12:35	83.8	83.8	83.1	40	56.9	2	6	270	0.00	30.004 
12:40	83.6	83.6	82.5	37	54.5	4	8	270	0.00	30.005 
12:45	83.4	83.4	82.6	39	55.8	3	5	315	0.00	30.006 
12:50	83.6	83.6	82.6	38	55.3	3	7	315	0.00	30.004 
12:55	84.0	84.0	83.0	38	55.6	2	4	315	0.00	30.003 
13:00	84.3	84.3	83.4	39	56.6	3	5	315	0.00	30.004 
13:05	84.0	84.0	83.1	39	56.3	4	10	315	0.00	30.003 
13:10	84.3	84.3	83.4	39	56.6	2	6	270	0.00	30.002 
13:15	84.9	84.9	84.2	40	57.8	3	5	315	0.00	30.001 
13:20	84.9	84.9	84.2	40	57.8	3	6	270	0.00	29.995 
13:25	84.7	84.7	84.0	40	57.7	3	6	270	0.00	29.995 
13:30	84.7	84.7	84.4	42	59.0	2	6	315	0.00	29.992 
13:35	84.7	84.7	84.0	40	57.7	3	8	315	0.00	29.991 
13:40	84.5	84.5	84.1	42	58.9	3	6	270	0.00	29.990 
13:45	84.3	84.3	83.9	42	58.7	2	6	315	0.00	29.989 
13:50	84.5	84.5	84.1	42	58.9	2	6	315	0.00	29.987 
13:55	84.5	84.5	84.0	41	58.2	4	7	270	0.00	29.988 
14:00	84.7	84.7	84.2	41	58.4	4	7	270	0.00	29.988 
14:05	84.5	84.5	84.1	42	58.9	3	6	270	0.00	29.984 
14:10	85.1	85.1	84.8	42	59.4	3	6	292	0.00	29.980 
14:15	85.3	85.3	84.8	41	58.9	3	6	270	0.00	29.976 
14:20	85.3	85.3	84.7	40	58.2	3	6	315	0.00	29.978 
14:25	85.3	85.3	84.8	41	58.9	3	6	270	0.00	29.975 
14:30	85.5	85.5	84.9	40	58.4	4	9	270	0.00	29.974 
14:35	85.7	85.7	85.3	41	59.3	3	7	292	0.00	29.971 
14:40	85.7	85.7	85.3	41	59.3	2	4	315	0.00	29.969 
14:45	85.9	85.9	85.3	40	58.7	2	5	292	0.00	29.965 
14:50	86.3	86.3	85.6	39	58.4	3	5	270	0.00	29.963 
14:55	86.7	86.7	86.0	39	58.7	2	7	292	0.00	29.959 
15:00	85.7	85.7	85.1	40	58.6	2	5	315	0.00	29.961 
15:05	85.3	85.3	84.8	41	58.9	2	4	270	0.00	29.958 
15:10	85.9	85.9	85.7	42	60.1	2	5	270	0.00	29.958 
15:15	85.7	85.7	85.3	41	59.3	2	5	315	0.00	29.956 
15:20	84.7	84.7	84.4	42	59.0	3	5	315	0.00	29.957 
15:25	84.5	84.5	84.1	42	58.9	2	4	270	0.00	29.955 
15:30	84.1	84.1	83.7	42	58.5	1	5	338	0.00	29.955 
15:35	84.5	84.5	84.1	42	58.9	2	4	315	0.00	29.953 
15:40	85.3	85.3	85.2	43	60.2	2	4	315	0.00	29.954 
15:45	85.5	85.5	85.1	41	59.1	2	4	315	0.00	29.952 
15:50	85.5	85.5	84.9	40	58.4	2	5	315	0.00	29.950 
15:55	84.7	84.7	83.8	39	57.0	3	5	270	0.00	29.955 
16:00	84.1	84.1	83.7	42	58.5	1	3	315	0.00	29.954 
16:05	85.3	85.3	85.0	42	59.6	2	5	270	0.00	29.951 
16:10	86.1	86.1	86.0	42	60.3	1	4	315	0.00	29.951 
16:15	86.3	86.3	86.0	41	59.8	2	7	292	0.00	29.953 
16:20	86.1	86.1	85.6	40	58.9	2	5	270	0.00	29.952 
16:25	85.3	85.3	84.7	40	58.2	2	4	292	0.00	29.952 
16:30	84.5	84.5	84.1	42	58.9	1	4	315	0.00	29.950 
16:35	84.1	84.1	83.6	41	57.8	2	4	292	0.00	29.953 
16:40	84.0	84.0	83.8	43	59.1	2	4	315	0.00	29.953 
16:45	83.8	83.8	83.4	42	58.2	2	5	315	0.00	29.953 
16:50	84.0	84.0	83.8	43	59.1	2	4	292	0.00	29.954 
16:55	83.8	83.8	83.7	44	59.5	1	4	0	0.00	29.950 
17:00	84.0	84.0	83.8	43	59.1	1	5	270	0.00	29.950 
17:05	84.3	84.3	84.1	43	59.3	2	5	292	0.00	29.948 
17:10	84.5	84.5	84.5	44	60.2	1	3	315	0.00	29.949 
17:15	84.3	84.3	84.1	43	59.3	1	4	0	0.00	29.949 
17:20	84.3	84.3	84.3	44	60.0	1	5	292	0.00	29.946 
17:25	84.0	84.0	84.1	45	60.3	1	4	315	0.00	29.944 
17:30	83.8	83.8	83.7	44	59.5	2	5	292	0.00	29.945 
17:35	83.6	83.6	83.7	45	60.0	1	4	292	0.00	29.944 
17:40	83.6	83.6	83.5	44	59.3	2	5	292	0.00	29.948 
17:45	83.6	83.6	83.9	46	60.6	1	4	292	0.00	29.950 
17:50	83.2	83.2	83.3	45	59.6	1	4	292	0.00	29.954 
17:55	83.0	83.0	83.1	45	59.4	1	2	292	0.00	29.954 
18:00	83.0	83.0	83.2	46	60.1	0	2	338	0.00	29.949 
18:05	83.0	83.0	83.4	47	60.7	1	2	338	0.00	29.946 
18:10	82.8	82.8	83.3	48	61.1	1	5	338	0.00	29.942 
18:15	82.4	82.4	83.0	49	61.3	1	3	0	0.00	29.946 
18:20	82.4	82.4	83.0	49	61.3	1	3	0	0.00	29.945 
18:25	82.0	82.0	82.8	50	61.5	1	3	0	0.00	29.944 
18:30	81.8	81.8	82.6	50	61.3	0	3	68	0.00	29.940 
18:35	81.8	81.8	82.3	48	60.2	0	3	0	0.00	29.939 
18:40	81.8	81.8	82.4	49	60.7	0	2	270	0.00	29.939 
18:45	81.4	81.4	82.0	49	60.4	0	2	292	0.00	29.939 
18:50	81.2	81.2	81.9	50	60.8	0	1	292	0.00	29.942 
18:55	81.2	81.2	81.9	50	60.8	0	2	292	0.00	29.945 
19:00	81.1	81.1	81.8	50	60.7	1	2	292	0.00	29.943 
19:05	80.9	80.9	81.6	50	60.5	0	2	292	0.00	29.939 
19:10	80.7	80.7	81.4	50	60.3	0	1	292	0.00	29.939 
19:15	80.7	80.7	81.4	50	60.3	0	1	292	0.00	29.941 
19:20	80.5	80.5	81.3	50	60.1	0	1	292	0.00	29.939 
19:25	80.1	80.1	81.0	51	60.3	0	1	292	0.00	29.942 
19:30	79.9	79.9	80.9	52	60.7	0	1	292	0.00	29.946 
19:35	79.6	79.6	80.6	52	60.4	0	1	292	0.00	29.948 
19:40	79.4	79.4	80.6	54	61.3	0	0	---	0.00	29.952 
19:45	78.8	78.8	80.1	54	60.7	0	0	---	0.00	29.954 
19:50	78.6	78.6	79.8	53	60.0	0	1	292	0.00	29.957 
19:55	78.3	78.3	79.7	54	60.3	0	0	---	0.00	29.954 
20:00	78.1	78.1	79.5	54	60.1	0	0	---	0.00	29.953 
20:05	77.6	77.6	79.2	55	60.1	0	0	---	0.00	29.950 
20:10	77.0	77.0	78.7	55	59.6	0	0	---	0.00	29.953 
20:15	76.7	76.7	78.5	56	59.8	0	0	---	0.00	29.955 
20:20	76.1	76.1	78.1	57	59.7	0	0	---	0.00	29.957 
20:25	75.8	75.8	77.9	57	59.5	0	0	---	0.00	29.958 
20:30	75.4	75.4	77.7	57	59.1	0	0	---	0.00	29.961 
20:35	75.1	75.1	77.5	57	58.8	0	0	---	0.00	29.968 
20:40	74.7	74.7	74.7	57	58.4	0	0	---	0.00	29.968 
20:45	74.4	74.4	74.4	58	58.6	0	0	---	0.00	29.973 
20:50	74.0	74.0	74.0	58	58.3	0	0	---	0.00	29.977 
20:55	74.0	74.0	74.0	56	57.3	0	0	---	0.00	29.980 
21:00	74.0	74.0	74.0	55	56.8	0	1	292	0.00	29.983 
21:05	74.0	74.0	74.0	54	56.3	0	0	---	0.00	29.982 
21:10	73.7	73.7	73.7	55	56.5	0	0	---	0.00	29.983 
21:15	73.3	73.3	73.3	54	55.6	0	0	---	0.00	29.986 
21:20	73.0	73.0	73.0	54	55.4	0	0	---	0.00	29.990 
21:25	72.8	72.8	72.8	54	55.2	0	0	---	0.00	29.987 
21:30	72.5	72.5	72.5	54	54.9	0	0	---	0.00	29.986 
21:35	72.1	72.1	72.1	56	55.5	0	0	---	0.00	29.986 
21:40	71.8	71.8	71.8	57	55.7	0	0	---	0.00	29.986 
21:45	71.5	71.5	71.5	58	55.9	0	0	---	0.00	29.986 
21:50	71.1	71.1	71.1	58	55.6	0	0	---	0.00	29.985 
21:55	71.1	71.1	71.1	60	56.5	0	0	---	0.00	29.988 
22:00	71.1	71.1	71.1	59	56.0	0	1	292	0.00	29.990 
22:05	71.3	71.3	71.3	57	55.3	0	1	292	0.00	29.987 
22:10	71.6	71.6	71.6	57	55.5	0	2	292	0.00	29.990 
22:15	71.6	71.6	71.6	57	55.5	0	1	292	0.00	29.996 
22:20	71.5	71.5	71.5	57	55.5	0	1	292	0.00	29.998 
22:25	71.1	71.1	71.1	58	55.6	0	0	---	0.00	30.001 
22:30	70.9	70.9	70.9	58	55.4	0	1	292	0.00	30.000 
22:35	70.8	70.8	70.8	59	55.7	0	0	---	0.00	30.000 
22:40	70.6	70.6	70.6	59	55.6	0	0	---	0.00	29.999 
22:45	70.6	70.6	70.6	59	55.6	0	1	292	0.00	30.000 
22:50	70.8	70.8	70.8	59	55.7	0	1	292	0.00	29.999 
22:55	70.8	70.8	70.8	59	55.7	0	2	292	0.00	30.000 
23:00	70.9	70.9	70.9	59	55.8	0	2	292	0.00	30.000 
23:05	70.8	70.8	70.8	59	55.7	0	1	292	0.00	30.000 
23:10	70.8	70.8	70.8	60	56.2	0	1	292	0.00	30.004 
23:15	70.6	70.6	70.6	60	56.0	0	1	292	0.00	30.004 
23:20	70.6	70.6	70.6	59	55.6	0	2	292	0.00	30.003 
23:25	70.6	70.6	70.6	61	56.5	0	1	292	0.00	30.001 
23:30	70.4	70.4	70.4	60	55.8	0	1	292	0.00	29.997 
23:35	70.3	70.3	70.3	60	55.7	0	1	292	0.00	29.995 
23:40	70.3	70.3	70.3	61	56.2	0	0	---	0.00	29.997 
23:45	70.1	70.1	70.1	60	55.6	0	1	292	0.00	29.998 
23:50	70.1	70.1	70.1	60	55.6	0	1	292	0.00	29.998 
23:55	70.1	70.1	70.1	59	55.1	0	2	292	0.00	29.998 

CoCoRaHS
IN-AL-39
A2 Web Hosting
Creative Commons License
GoDaddy
Look for:

loaded 2017-12-13 19:43:42 • last modified 2010-11-18 10:43:29
Privacy PolicyDisclaimer
• wx.awcolley.com is powered by PmWiki v.2002016 •
• all content (unless otherwise noted) © 2017 A W Colley